Time;durP1;ratioP1;P1;durP2;ratioP2;P2;SDS_P1;SDS_P2;PMS_P1;PMS_P2;Temp;Humidity;BMP_temperature;BMP_pressure;BME280_temperature;BME280_humidity;BME280_pressure;Samples;Min_cycle;Max_cycle;Signal;HPM_P1;HPM_P2
2023/05/27 00:01:01;;;;;;;18.60;5.18;;;;;;;10.48;70.70;102787.88;5045519;28;20033;-82
2023/05/27 00:03:26;;;;;;;22.02;4.90;;;;;;;10.72;70.98;102833.75;5036909;28;20125;-83
2023/05/27 00:05:52;;;;;;;17.85;4.97;;;;;;;10.67;71.39;102826.91;5044820;28;20061;-83
2023/05/27 00:08:18;;;;;;;21.60;5.80;;;;;;;10.34;71.76;102782.31;5037038;28;20033;-83
2023/05/27 00:10:43;;;;;;;17.90;4.82;;;;;;;10.42;72.02;102800.56;5042503;28;20030;-83
2023/05/27 00:13:08;;;;;;;18.25;5.72;;;;;;;10.48;72.24;102814.44;5041742;28;20037;-84
2023/05/27 00:15:34;;;;;;;19.77;5.10;;;;;;;10.34;72.28;102790.28;5040055;28;20052;-83
2023/05/27 00:18:01;;;;;;;19.33;5.25;;;;;;;10.46;72.53;102826.06;5036220;28;20175;-83
2023/05/27 00:20:27;;;;;;;19.98;4.97;;;;;;;10.45;72.03;102827.88;5029453;28;20053;-84
2023/05/27 00:22:52;;;;;;;14.15;5.45;;;;;;;10.40;72.55;102816.59;5037496;28;20025;-83
2023/05/27 00:25:21;;;;;;;20.63;4.95;;;;;;;10.31;72.71;102816.97;5038177;28;20026;-84
2023/05/27 00:27:47;;;;;;;19.52;5.60;;;;;;;10.28;73.17;102825.94;5039183;28;20112;-84
2023/05/27 00:30:12;;;;;;;17.30;5.35;;;;;;;10.20;73.02;102812.13;5029855;28;20071;-83
2023/05/27 00:32:38;;;;;;;16.80;5.10;;;;;;;10.27;72.92;102826.84;5039325;28;20025;-83
2023/05/27 00:35:03;;;;;;;14.88;4.85;;;;;;;10.25;73.24;102826.06;5038537;28;20108;-83
2023/05/27 00:37:29;;;;;;;16.85;6.40;;;;;;;10.15;73.45;102808.81;5037743;28;20025;-84
2023/05/27 00:39:54;;;;;;;17.02;5.10;;;;;;;10.15;73.55;102814.09;5041566;28;20055;-84
2023/05/27 00:42:20;;;;;;;15.30;5.05;;;;;;;10.13;74.04;102813.31;5041506;28;20029;-84
2023/05/27 00:44:45;;;;;;;14.38;5.03;;;;;;;10.10;73.50;102805.47;5039787;28;20501;-84
2023/05/27 00:47:11;;;;;;;17.35;5.22;;;;;;;10.02;73.99;102799.63;5036753;28;20491;-84
2023/05/27 00:49:36;;;;;;;21.58;5.55;;;;;;;10.05;73.72;102816.28;5037414;28;20036;-83
2023/05/27 00:52:01;;;;;;;12.95;4.95;;;;;;;9.98;74.29;102810.38;5040379;28;20383;-84
2023/05/27 00:54:27;;;;;;;13.95;4.43;;;;;;;9.98;73.87;102814.84;5040158;28;20033;-83
2023/05/27 00:56:52;;;;;;;14.88;5.30;;;;;;;9.95;73.69;102810.50;5040160;28;20021;-84
2023/05/27 00:59:18;;;;;;;16.38;5.25;;;;;;;9.90;74.22;102801.03;5039925;28;20043;-84
2023/05/27 01:01:43;;;;;;;19.17;4.93;;;;;;;9.89;74.35;102808.13;5040071;28;20083;-84
2023/05/27 01:04:12;;;;;;;17.52;5.60;;;;;;;9.78;74.13;102805.06;5039406;28;20209;-83
2023/05/27 01:07:03;;;;;;;15.93;5.30;;;;;;;9.79;73.40;102789.06;5038991;28;20026;-84
2023/05/27 01:09:57;;;;;;;17.25;5.10;;;;;;;9.81;74.47;102803.13;5040872;28;20021;-83
2023/05/27 01:12:46;;;;;;;13.32;5.22;;;;;;;9.76;73.37;102797.16;5037162;28;20026;-83
2023/05/27 01:15:12;;;;;;;15.13;4.93;;;;;;;9.74;74.42;102804.34;5034508;28;20108;-84
2023/05/27 01:17:42;;;;;;;14.70;5.10;;;;;;;9.67;74.80;102802.00;5032818;28;20044;-84
2023/05/27 01:20:10;;;;;;;17.73;5.55;;;;;;;9.58;74.79;102788.16;5042098;28;20045;-83
2023/05/27 01:22:36;;;;;;;15.02;4.57;;;;;;;9.62;75.04;102796.88;5041565;28;20100;-84
2023/05/27 01:25:03;;;;;;;17.15;5.10;;;;;;;9.59;75.16;102800.53;5036749;28;20048;-84
2023/05/27 01:27:29;;;;;;;13.00;4.47;;;;;;;9.56;75.33;102799.75;5041003;28;20025;-84
2023/05/27 01:29:56;;;;;;;17.80;4.82;;;;;;;9.52;75.82;102792.88;5041014;28;20021;-84
2023/05/27 01:32:29;;;;;;;20.30;5.07;;;;;;;9.49;75.84;102798.28;5040521;28;20101;-84
2023/05/27 01:35:13;;;;;;;15.85;5.28;;;;;;;9.48;75.50;102791.28;5041723;28;20021;-84
2023/05/27 01:37:43;;;;;;;16.80;4.70;;;;;;;9.40;75.85;102778.31;5040987;28;20160;-84
2023/05/27 01:40:11;;;;;;;14.00;4.55;;;;;;;9.40;75.98;102791.56;5041634;28;20025;-83
2023/05/27 01:42:39;;;;;;;16.35;5.10;;;;;;;9.41;75.48;102785.34;5032892;28;20080;-84
2023/05/27 01:45:07;;;;;;;16.48;5.03;;;;;;;9.38;76.09;102791.63;5037989;28;20025;-84
2023/05/27 01:47:32;;;;;;;17.05;4.43;;;;;;;9.28;76.22;102782.34;5039848;28;20029;-84
2023/05/27 01:49:58;;;;;;;16.38;4.88;;;;;;;9.34;76.07;102778.56;5041118;28;20091;-83
2023/05/27 01:52:23;;;;;;;18.75;5.47;;;;;;;9.24;76.49;102776.28;5036681;28;20391;-83
2023/05/27 01:54:49;;;;;;;13.73;4.40;;;;;;;9.26;76.80;102782.38;5040316;28;20093;-84
2023/05/27 01:57:14;;;;;;;15.98;5.05;;;;;;;9.19;76.78;102774.72;5039627;28;20025;-84
2023/05/27 01:59:40;;;;;;;18.38;4.82;;;;;;;9.22;76.58;102777.25;5040972;28;20037;-84
2023/05/27 02:02:05;;;;;;;13.65;4.82;;;;;;;9.20;76.78;102771.16;5041682;28;20120;-85
2023/05/27 02:04:31;;;;;;;13.95;5.38;;;;;;;9.17;77.07;102779.25;5037342;28;20546;-84
2023/05/27 02:06:56;;;;;;;13.85;5.05;;;;;;;9.14;77.09;102769.59;5040141;28;20033;-82
2023/05/27 02:09:22;;;;;;;19.10;5.15;;;;;;;9.16;76.98;102778.38;5041425;28;20041;-82
2023/05/27 02:11:47;;;;;;;11.35;4.40;;;;;;;9.12;77.05;102783.84;5029706;28;20028;-84
2023/05/27 02:14:14;;;;;;;16.95;5.28;;;;;;;9.03;77.88;102778.00;5041172;28;20379;-83
2023/05/27 02:16:39;;;;;;;15.80;5.60;;;;;;;9.04;77.69;102787.69;5040028;28;20491;-84
2023/05/27 02:19:05;;;;;;;16.95;5.00;;;;;;;9.03;77.92;102785.09;5041565;28;20056;-84
2023/05/27 02:21:30;;;;;;;18.55;5.28;;;;;;;8.99;78.46;102784.34;5041459;28;20041;-84
2023/05/27 02:23:56;;;;;;;17.52;5.50;;;;;;;8.96;78.13;102780.94;5039933;28;20030;-83
2023/05/27 02:26:22;;;;;;;18.63;5.10;;;;;;;8.95;78.17;102789.81;5038581;28;20030;-84
2023/05/27 02:28:47;;;;;;;16.27;5.32;;;;;;;8.92;77.99;102785.50;5039464;28;20025;-84
2023/05/27 02:31:12;;;;;;;18.50;5.32;;;;;;;8.85;78.74;102774.25;5042352;28;20076;-84
2023/05/27 02:33:38;;;;;;;17.38;5.47;;;;;;;8.86;78.55;102788.41;5042117;28;20025;-84
2023/05/27 02:36:03;;;;;;;15.90;5.57;;;;;;;8.83;78.84;102789.38;5042204;28;20025;-83
2023/05/27 02:38:28;;;;;;;18.90;5.63;;;;;;;8.84;79.03;102784.91;5048993;28;20303;-83
2023/05/27 02:40:54;;;;;;;17.95;5.63;;;;;;;8.76;78.87;102782.56;5057080;28;20037;-83
2023/05/27 02:43:19;;;;;;;18.50;5.30;;;;;;;8.77;78.91;102789.59;5051548;28;20048;-84
2023/05/27 02:45:45;;;;;;;15.60;4.55;;;;;;;8.75;79.31;102790.59;5047864;28;20529;-84
2023/05/27 02:48:10;;;;;;;14.68;4.97;;;;;;;8.66;79.76;102779.41;5047586;28;20077;-83
2023/05/27 02:50:35;;;;;;;17.15;5.18;;;;;;;8.68;79.79;102789.94;5047315;28;20096;-84
2023/05/27 02:53:01;;;;;;;18.63;5.80;;;;;;;8.69;79.60;102794.31;5046820;28;20026;-84
2023/05/27 02:55:26;;;;;;;20.13;5.55;;;;;;;8.66;79.84;102790.00;5042513;28;20030;-83
2023/05/27 02:57:51;;;;;;;17.88;5.18;;;;;;;8.63;79.97;102799.84;5040557;28;20041;-83
2023/05/27 03:00:17;;;;;;;20.75;5.68;;;;;;;8.61;80.53;102799.03;5035999;28;20387;-83
2023/05/27 03:02:43;;;;;;;17.08;5.63;;;;;;;8.58;80.70;102802.66;5048871;28;20030;-83
2023/05/27 03:05:08;;;;;;;17.95;5.47;;;;;;;8.54;81.26;102801.03;5046325;28;20017;-83
2023/05/27 03:07:33;;;;;;;19.35;5.40;;;;;;;8.51;81.27;102801.19;5045696;28;20044;-83
2023/05/27 03:09:59;;;;;;;16.45;5.72;;;;;;;8.55;81.48;102796.63;5045883;28;20083;-84
2023/05/27 03:12:24;;;;;;;21.33;5.78;;;;;;;8.51;81.25;102798.53;5043043;28;20021;-84
2023/05/27 03:14:50;;;;;;;19.20;5.47;;;;;;;8.51;81.10;102798.53;5035319;28;20024;-83
2023/05/27 03:17:16;;;;;;;17.20;5.55;;;;;;;8.51;81.28;102795.88;5041161;28;20036;-83
2023/05/27 03:19:41;;;;;;;18.05;5.50;;;;;;;8.49;81.80;102795.94;5035397;28;20124;-83
2023/05/27 03:22:08;;;;;;;19.63;5.97;;;;;;;8.48;81.49;102793.34;5045321;28;20040;-83
2023/05/27 03:24:35;;;;;;;19.73;5.82;;;;;;;8.44;82.04;102789.06;5045211;28;20108;-83
2023/05/27 03:27:01;;;;;;;16.65;5.80;;;;;;;8.43;81.08;102796.16;5037977;28;20086;-83
2023/05/27 03:29:26;;;;;;;12.75;5.32;;;;;;;8.40;82.37;102798.88;5045156;28;20041;-83
2023/05/27 03:31:52;;;;;;;22.52;5.80;;;;;;;8.38;82.35;102794.56;5051719;28;20021;-82
2023/05/27 03:34:17;;;;;;;18.35;5.60;;;;;;;8.37;82.20;102782.22;5057363;28;20048;-82
2023/05/27 03:36:45;;;;;;;15.68;5.68;;;;;;;8.32;83.07;102785.03;5057205;28;20041;-82
2023/05/27 03:39:14;;;;;;;20.67;6.55;;;;;;;8.18;83.56;102764.38;5057311;28;20077;-82
2023/05/27 03:41:41;;;;;;;13.90;6.00;;;;;;;8.23;83.85;102775.66;5048619;28;20044;-83
2023/05/27 03:44:06;;;;;;;20.48;5.78;;;;;;;8.21;83.62;102773.97;5046467;28;20056;-83
2023/05/27 03:46:32;;;;;;;18.90;6.25;;;;;;;8.10;83.91;102761.97;5041442;28;20395;-83
2023/05/27 03:48:58;;;;;;;13.05;5.55;;;;;;;8.12;83.96;102764.56;5044415;28;20029;-83
2023/05/27 03:51:23;;;;;;;18.27;5.80;;;;;;;8.14;84.67;102771.56;5043622;28;20029;-83
2023/05/27 03:53:48;;;;;;;20.52;5.97;;;;;;;8.13;84.88;102774.25;5044095;28;20564;-82
2023/05/27 03:56:14;;;;;;;17.25;5.93;;;;;;;8.12;84.67;102767.22;5044243;28;20029;-82
2023/05/27 03:58:39;;;;;;;19.30;6.25;;;;;;;8.09;84.84;102767.31;5036242;28;20033;-83
2023/05/27 04:01:05;;;;;;;19.05;5.63;;;;;;;8.13;84.79;102761.03;5038843;28;20504;-82
2023/05/27 04:03:31;;;;;;;16.33;5.75;;;;;;;8.12;84.59;102772.50;5042759;28;20033;-83
2023/05/27 04:05:57;;;;;;;19.35;6.18;;;;;;;8.09;84.62;102760.28;5044239;28;20021;-84
2023/05/27 04:08:28;;;;;;;20.23;6.13;;;;;;;8.04;84.93;102758.69;5042675;28;20021;-82
2023/05/27 04:10:55;;;;;;;18.05;5.78;;;;;;;8.10;85.35;102764.63;5044144;28;20068;-83
2023/05/27 04:13:21;;;;;;;19.90;5.93;;;;;;;8.10;85.49;102761.13;5043519;28;20038;-82
2023/05/27 04:15:46;;;;;;;15.70;5.80;;;;;;;8.09;85.29;102759.38;5043685;28;20029;-82
2023/05/27 04:18:12;;;;;;;23.00;6.22;;;;;;;8.13;85.41;102766.31;5002699;28;1038361;-83
2023/05/27 04:20:40;;;;;;;22.60;5.95;;;;;;;8.12;85.24;102765.44;5041585;28;20037;-82
2023/05/27 04:23:10;;;;;;;15.90;6.10;;;;;;;8.10;85.69;102754.03;5046066;28;20037;-82
2023/05/27 04:25:35;;;;;;;;;;;;;;;8.22;82.64;102765.97;5044885;28;20029;-82
2023/05/27 04:28:04;;;;;;;18.40;5.82;;;;;;;8.10;85.52;102755.84;5043843;28;19983;-82
2023/05/27 04:30:31;;;;;;;19.02;5.93;;;;;;;8.15;85.70;102753.88;5044286;28;20049;-82
2023/05/27 04:32:56;;;;;;;22.30;6.05;;;;;;;8.12;86.18;102760.13;5043037;28;20040;-83
2023/05/27 04:35:22;;;;;;;13.88;6.20;;;;;;;8.11;86.48;102757.53;5043713;28;20017;-84
2023/05/27 04:37:47;;;;;;;21.10;6.05;;;;;;;8.14;86.17;102749.50;5044143;28;20230;-82
2023/05/27 04:40:13;;;;;;;23.13;6.22;;;;;;;8.11;86.42;102737.25;5028662;28;20023;-82
2023/05/27 04:42:39;;;;;;;22.75;6.03;;;;;;;8.18;86.27;102742.31;5036911;28;20105;-82
2023/05/27 04:45:06;;;;;;;18.90;6.22;;;;;;;8.19;86.49;102738.75;5044068;28;20041;-83
2023/05/27 04:47:36;;;;;;;19.58;5.78;;;;;;;8.18;86.47;102739.66;5046743;28;20060;-82
2023/05/27 04:50:03;;;;;;;17.02;5.78;;;;;;;8.21;86.88;102740.44;5062921;28;20032;-82
2023/05/27 04:52:29;;;;;;;15.30;5.97;;;;;;;8.30;86.76;102741.88;5044876;28;20058;-82
2023/05/27 04:54:54;;;;;;;19.83;7.25;;;;;;;8.29;86.35;102733.09;5020552;28;20357;-83
2023/05/27 04:57:20;;;;;;;19.13;6.32;;;;;;;8.42;86.40;102743.19;5029982;28;20025;-83
2023/05/27 05:02:36;;;;;;;20.55;6.20;;;;;;;8.46;86.24;102729.84;5031711;28;20039;-83
2023/05/27 05:05:06;;;;;;;20.30;6.80;;;;;;;8.61;85.63;102732.81;5039668;28;20052;-83
2023/05/27 05:07:33;;;;;;;22.35;6.75;;;;;;;8.65;85.70;102734.44;5039200;28;20034;-83
2023/05/27 05:10:00;;;;;;;22.40;6.60;;;;;;;8.68;85.77;102732.53;5038854;28;20036;-83
2023/05/27 05:12:26;;;;;;;15.52;6.00;;;;;;;8.68;85.77;102736.97;5037077;28;20061;-83
2023/05/27 05:14:52;;;;;;;20.80;6.63;;;;;;;8.60;85.42;102716.06;5028926;28;20030;-83
2023/05/27 05:17:18;;;;;;;19.45;6.63;;;;;;;8.70;85.85;102732.47;5039115;28;20032;-82
2023/05/27 05:19:45;;;;;;;18.85;6.53;;;;;;;8.80;85.68;102740.94;5038804;28;20049;-82
2023/05/27 05:22:13;;;;;;;19.48;6.70;;;;;;;8.78;85.59;102732.19;5038650;28;20498;-83
2023/05/27 05:24:39;;;;;;;19.90;6.27;;;;;;;8.92;86.12;102736.94;5046412;28;20030;-83
2023/05/27 05:27:06;;;;;;;21.40;7.60;;;;;;;8.93;85.12;102734.22;5048567;28;20040;-83
2023/05/27 05:29:34;;;;;;;22.27;7.10;;;;;;;9.07;85.10;102728.38;5026359;28;20017;-82
2023/05/27 05:32:02;;;;;;;18.27;7.10;;;;;;;9.23;84.74;102731.28;5044696;28;20029;-83
2023/05/27 05:34:28;;;;;;;21.77;7.35;;;;;;;9.34;83.96;102725.53;5042947;28;20056;-83
2023/05/27 05:36:53;;;;;;;18.70;6.85;;;;;;;9.57;83.39;102730.72;5041807;28;20033;-83
2023/05/27 05:39:20;;;;;;;22.33;6.53;;;;;;;9.71;82.51;102723.97;5038618;28;20037;-81
2023/05/27 05:41:48;;;;;;;21.83;6.72;;;;;;;9.80;81.97;102721.78;5040514;28;20058;-82
2023/05/27 05:44:13;;;;;;;19.15;6.72;;;;;;;9.96;81.57;102722.00;5038069;28;20018;-82
2023/05/27 05:46:39;;;;;;;20.90;7.20;;;;;;;10.08;81.18;102714.41;5038868;28;20371;-82
2023/05/27 05:49:05;;;;;;;19.05;6.60;;;;;;;10.26;80.45;102724.22;5039184;28;20024;-82
2023/05/27 05:51:30;;;;;;;21.02;6.93;;;;;;;10.36;79.43;102717.59;5037365;28;20079;-81
2023/05/27 05:53:58;;;;;;;18.10;6.72;;;;;;;10.51;79.13;102718.66;5030249;28;20053;-82
2023/05/27 05:56:25;;;;;;;21.42;6.28;;;;;;;10.54;78.72;102694.63;5040733;28;20025;-82
2023/05/27 05:58:54;;;;;;;18.75;6.50;;;;;;;10.76;78.58;102688.28;5040323;28;20064;-82
2023/05/27 06:01:19;;;;;;;13.30;6.47;;;;;;;11.09;77.72;102700.84;5041255;28;20053;-82
2023/05/27 06:03:45;;;;;;;20.58;6.63;;;;;;;11.14;76.74;102685.56;5042954;28;20037;-82
2023/05/27 06:06:11;;;;;;;19.10;7.10;;;;;;;11.25;75.43;102669.91;5042845;28;20108;-83
2023/05/27 06:08:39;;;;;;;22.38;6.70;;;;;;;11.26;75.04;102649.50;5027077;28;20049;-83
2023/05/27 06:11:05;;;;;;;18.15;5.75;;;;;;;11.51;74.43;102680.16;5035835;28;20064;-83
2023/05/27 06:13:30;;;;;;;19.83;6.60;;;;;;;11.48;73.76;102666.09;5037415;28;20036;-83
2023/05/27 06:15:55;;;;;;;19.83;7.00;;;;;;;11.58;73.75;102678.94;5038543;28;20037;-82
2023/05/27 06:18:21;;;;;;;20.50;6.50;;;;;;;11.84;73.29;102702.41;5032994;28;20042;-83
2023/05/27 06:20:49;;;;;;;18.63;6.22;;;;;;;11.99;73.43;102705.22;5039086;28;20038;-82
2023/05/27 06:23:14;;;;;;;20.23;7.10;;;;;;;11.94;72.69;102654.00;5042109;28;20119;-82
2023/05/27 06:25:42;;;;;;;21.15;6.15;;;;;;;12.06;71.76;102650.69;5033654;28;20087;-82
2023/05/27 06:28:07;;;;;;;22.70;7.20;;;;;;;12.33;71.88;102672.28;5039349;28;20026;-82
2023/05/27 06:30:33;;;;;;;19.50;7.07;;;;;;;12.63;70.52;102686.69;5041956;28;20040;-83
2023/05/27 06:32:58;;;;;;;17.10;6.68;;;;;;;12.77;69.67;102692.09;5037980;28;20033;-82
2023/05/27 06:35:24;;;;;;;21.63;6.50;;;;;;;12.91;69.45;102680.66;5037791;28;20041;-82
2023/05/27 06:37:49;;;;;;;19.40;6.20;;;;;;;13.02;69.50;102683.53;5038954;28;20029;-82
2023/05/27 06:40:15;;;;;;;15.98;5.63;;;;;;;13.21;68.29;102690.50;5039856;28;20037;-83
2023/05/27 06:42:40;;;;;;;20.40;7.75;;;;;;;13.38;67.99;102681.53;5039882;28;20028;-82
2023/05/27 06:45:06;;;;;;;21.00;6.13;;;;;;;13.57;67.36;102683.97;5035418;28;20049;-84
2023/05/27 06:47:31;;;;;;;20.83;6.45;;;;;;;13.77;65.94;102669.41;5039287;28;20029;-83
2023/05/27 06:49:56;;;;;;;15.50;6.35;;;;;;;14.08;66.14;102676.38;5040531;28;20041;-83
2023/05/27 06:52:22;;;;;;;19.80;6.88;;;;;;;14.32;64.93;102682.03;5034947;28;20068;-83
2023/05/27 06:54:47;;;;;;;19.95;7.07;;;;;;;14.33;63.63;102646.31;5039536;28;20049;-83
2023/05/27 06:57:13;;;;;;;19.08;6.22;;;;;;;14.56;63.24;102679.59;5048878;28;20087;-82
2023/05/27 06:59:39;;;;;;;14.88;6.18;;;;;;;14.80;62.78;102670.97;5028412;28;20080;-82
2023/05/27 07:02:05;;;;;;;19.15;7.07;;;;;;;14.92;61.62;102675.53;5033497;28;20026;-82
2023/05/27 07:04:30;;;;;;;18.30;5.88;;;;;;;15.19;61.70;102666.63;5036677;28;20045;-83
2023/05/27 07:06:59;;;;;;;18.35;6.65;;;;;;;15.24;60.67;102672.50;5036132;28;20033;-83
2023/05/27 07:09:25;;;;;;;19.35;6.25;;;;;;;15.39;60.65;102667.06;5041337;28;20049;-82
2023/05/27 07:11:51;;;;;;;20.23;6.40;;;;;;;15.51;59.56;102669.75;5034638;28;20077;-81
2023/05/27 07:14:18;;;;;;;19.90;6.30;;;;;;;15.64;58.96;102660.91;5042973;28;20057;-81
2023/05/27 07:16:44;;;;;;;20.38;6.18;;;;;;;15.89;59.30;102665.44;5031101;28;20096;-81
2023/05/27 07:19:09;;;;;;;18.83;6.60;;;;;;;16.08;58.13;102657.78;5037050;28;20045;-81
2023/05/27 07:21:36;;;;;;;22.20;6.03;;;;;;;16.27;57.61;102653.81;5036918;28;20045;-83
2023/05/27 07:24:03;;;;;;;21.00;6.55;;;;;;;16.24;56.85;102627.22;5041405;28;20056;-82
2023/05/27 07:26:29;;;;;;;19.92;6.30;;;;;;;16.43;56.49;102627.56;5042679;28;20017;-82
2023/05/27 07:29:00;;;;;;;17.60;6.68;;;;;;;16.64;55.78;102640.41;5043016;28;20033;-82
2023/05/27 07:31:27;;;;;;;20.23;6.35;;;;;;;16.97;55.71;102650.47;5037654;28;20037;-82
2023/05/27 07:33:53;;;;;;;20.98;6.25;;;;;;;17.03;54.25;102659.88;5039334;28;20033;-82
2023/05/27 07:36:18;;;;;;;13.57;5.75;;;;;;;17.29;54.69;102654.38;5037263;28;20499;-82
2023/05/27 07:38:44;;;;;;;22.27;6.35;;;;;;;17.22;53.16;102634.31;5036064;28;20079;-82
2023/05/27 07:41:10;;;;;;;21.23;6.38;;;;;;;17.59;53.05;102655.69;5041713;28;20109;-81
2023/05/27 07:43:36;;;;;;;18.88;5.93;;;;;;;17.80;52.60;102650.44;5033485;28;20450;-81
2023/05/27 07:46:01;;;;;;;18.33;5.90;;;;;;;17.88;51.76;102648.03;5045711;28;20041;-81
2023/05/27 07:48:28;;;;;;;18.60;6.30;;;;;;;18.04;51.45;102645.84;5042508;28;20029;-82
2023/05/27 07:50:54;;;;;;;18.58;6.53;;;;;;;18.14;51.09;102647.81;5038694;28;20033;-82
2023/05/27 07:53:19;;;;;;;18.35;7.32;;;;;;;18.35;51.60;102623.66;5043337;28;20071;-82
2023/05/27 07:55:44;;;;;;;17.25;6.70;;;;;;;18.66;50.77;102632.78;5040686;28;20026;-82
2023/05/27 07:58:10;;;;;;;21.10;6.43;;;;;;;18.65;49.52;102626.53;5042585;28;20029;-82
2023/05/27 08:00:35;;;;;;;19.77;6.75;;;;;;;18.77;49.24;102619.28;5041477;28;20331;-81
2023/05/27 08:03:00;;;;;;;18.10;6.15;;;;;;;18.93;49.81;102620.72;5042326;28;20040;-80
2023/05/27 08:05:25;;;;;;;17.10;5.90;;;;;;;18.95;48.89;102610.66;5033720;28;20510;-80
2023/05/27 08:07:51;;;;;;;18.15;6.55;;;;;;;19.29;49.12;102622.13;5032331;28;20292;-81
2023/05/27 08:10:16;;;;;;;14.38;6.15;;;;;;;19.50;48.04;102616.72;5036626;28;20041;-80
2023/05/27 08:12:47;;;;;;;17.58;6.05;;;;;;;19.62;47.34;102608.53;5040042;28;20537;-81
2023/05/27 08:15:12;;;;;;;19.40;6.53;;;;;;;19.73;47.45;102609.34;5042969;28;20522;-81
2023/05/27 08:17:40;;;;;;;17.63;6.07;;;;;;;20.07;48.05;102613.63;5044276;28;20030;-82
2023/05/27 08:20:06;;;;;;;16.83;6.70;;;;;;;20.10;45.91;102594.44;5039856;28;20339;-83
2023/05/27 08:22:31;;;;;;;19.77;6.72;;;;;;;20.07;45.92;102598.28;5041515;28;20029;-83
2023/05/27 08:24:57;;;;;;;17.13;6.35;;;;;;;20.37;46.02;102591.09;5036487;28;20040;-81
2023/05/27 08:27:45;;;;;;;17.60;6.00;;;;;;;20.64;47.22;102579.66;5043615;28;20075;-81
2023/05/27 08:30:12;;;;;;;19.85;6.63;;;;;;;20.77;44.53;102590.16;5043754;28;20038;-82
2023/05/27 08:32:40;;;;;;;16.48;6.57;;;;;;;20.95;44.11;102562.44;5042427;28;20119;-82
2023/05/27 08:35:29;;;;;;;16.77;6.30;;;;;;;21.30;45.37;102558.22;5042677;28;20034;-82
2023/05/27 08:38:25;;;;;;;16.42;6.05;;;;;;;21.47;45.40;102538.59;5041168;28;20041;-82
2023/05/27 08:40:58;;;;;;;20.17;6.25;;;;;;;21.47;42.42;102546.69;5031485;28;20041;-82
2023/05/27 08:43:36;;;;;;;14.43;5.93;;;;;;;21.65;42.54;102532.38;5038442;28;20064;-82
2023/05/27 08:46:05;;;;;;;;;;;;;;;22.18;45.64;102558.69;5045507;28;20025;-83
2023/05/27 08:48:33;;;;;;;14.50;6.13;;;;;;;22.23;41.00;102556.38;5051570;28;19952;-82
2023/05/27 08:51:00;;;;;;;21.52;6.30;;;;;;;22.18;41.25;102520.81;5055429;28;20044;-82
2023/05/27 08:53:34;;;;;;;13.27;5.93;;;;;;;22.24;40.67;102525.63;5055851;28;20044;-83
2023/05/27 08:56:01;;;;;;;19.20;6.78;;;;;;;22.67;39.95;102537.56;5052761;28;20025;-83
2023/05/27 08:58:29;;;;;;;17.90;6.68;;;;;;;22.75;39.45;102522.38;5041031;28;20037;-83
2023/05/27 09:00:56;;;;;;;20.17;6.88;;;;;;;23.04;39.60;102512.09;5038715;28;20025;-83
2023/05/27 09:03:22;;;;;;;20.67;6.30;;;;;;;23.23;38.73;102515.63;5037389;28;20450;-83
2023/05/27 09:06:04;;;;;;;16.55;6.82;;;;;;;23.33;39.96;102529.94;5024016;28;20045;-83
2023/05/27 09:08:30;;;;;;;16.80;6.13;;;;;;;23.70;38.35;102536.88;5030292;28;20056;-83
2023/05/27 09:10:55;;;;;;;16.40;6.07;;;;;;;23.59;36.04;102520.91;5041602;28;20467;-83
2023/05/27 09:13:32;;;;;;;17.75;6.43;;;;;;;23.95;38.46;102518.84;5042534;28;20460;-83
2023/05/27 09:16:02;;;;;;;18.13;6.63;;;;;;;23.87;36.11;102509.84;5049380;28;20109;-82
2023/05/27 09:18:29;;;;;;;17.02;6.15;;;;;;;23.95;35.80;102508.00;5053631;28;20049;-83
2023/05/27 09:20:56;;;;;;;16.02;5.85;;;;;;;24.37;35.69;102520.63;5049638;28;20121;-83
2023/05/27 09:23:23;;;;;;;15.27;6.00;;;;;;;24.62;35.21;102528.81;5044496;28;20124;-84
2023/05/27 09:25:50;;;;;;;17.42;6.35;;;;;;;24.68;35.97;102521.84;5040966;28;20068;-83
2023/05/27 09:28:25;;;;;;;17.90;6.72;;;;;;;25.09;35.57;102522.63;5041409;28;20037;-83
2023/05/27 09:31:05;;;;;;;18.17;6.05;;;;;;;25.35;36.11;102508.00;5041086;28;20032;-83
2023/05/27 09:33:32;;;;;;;19.80;5.70;;;;;;;25.49;35.83;102507.25;5040865;28;20475;-83
2023/05/27 09:36:02;;;;;;;18.90;7.05;;;;;;;25.44;34.70;102504.22;5040959;28;20029;-83
2023/05/27 09:38:32;;;;;;;17.77;6.35;;;;;;;25.36;33.61;102504.22;5042090;28;20029;-84
2023/05/27 09:40:58;;;;;;;17.63;5.90;;;;;;;25.45;32.35;102505.91;5035313;28;20035;-83
2023/05/27 09:43:25;;;;;;;16.63;5.85;;;;;;;25.49;31.44;102495.53;5036693;28;20025;-83
2023/05/27 09:45:52;;;;;;;15.98;6.03;;;;;;;25.64;32.40;102504.63;5036365;28;20026;-83
2023/05/27 09:48:19;;;;;;;15.43;5.50;;;;;;;25.78;32.06;102496.72;5037384;28;20030;-83
2023/05/27 09:50:45;;;;;;;16.80;5.40;;;;;;;25.85;32.39;102489.56;5036911;28;20025;-81
2023/05/27 09:53:12;;;;;;;16.58;5.80;;;;;;;25.77;31.94;102489.63;5032786;28;20037;-83
2023/05/27 09:55:41;;;;;;;16.50;5.45;;;;;;;26.32;31.55;102493.19;5017702;28;20063;-83
2023/05/27 09:58:06;;;;;;;19.00;6.00;;;;;;;26.49;31.54;102491.19;5035160;28;20025;-82
2023/05/27 10:00:33;;;;;;;19.88;5.75;;;;;;;26.45;31.37;102478.97;5038162;28;20112;-82
2023/05/27 10:03:00;;;;;;;18.98;6.13;;;;;;;26.54;31.24;102475.13;5037215;28;20026;-82
2023/05/27 10:05:27;;;;;;;16.35;5.97;;;;;;;26.63;30.93;102489.50;5037951;28;20036;-82
2023/05/27 10:07:52;;;;;;;16.88;5.50;;;;;;;26.58;30.74;102477.31;5038811;28;20024;-82
2023/05/27 10:10:18;;;;;;;18.58;5.85;;;;;;;26.50;30.48;102477.38;5040756;28;20391;-82
2023/05/27 10:12:46;;;;;;;17.88;5.68;;;;;;;26.32;31.23;102474.13;5039044;28;20429;-84
2023/05/27 10:15:32;;;;;;;18.65;6.30;;;;;;;26.36;32.77;102462.69;5036170;28;20025;-83
2023/05/27 10:18:09;;;;;;;18.95;6.43;;;;;;;26.18;32.82;102463.00;5025393;28;20060;-83
2023/05/27 10:20:37;;;;;;;23.60;6.60;;;;;;;25.95;32.65;102459.41;5039169;28;20136;-83
2023/05/27 10:23:21;;;;;;;16.83;6.25;;;;;;;25.95;32.45;102449.38;5038819;28;20029;-83
2023/05/27 10:25:52;;;;;;;16.75;5.97;;;;;;;26.11;33.49;102455.72;5038505;28;20033;-83
2023/05/27 10:28:36;;;;;;;15.23;6.30;;;;;;;26.34;33.36;102447.53;5036498;28;20038;-83
2023/05/27 10:31:08;;;;;;;18.25;6.90;;;;;;;26.42;33.19;102447.47;5045636;28;20117;-83
2023/05/27 10:33:43;;;;;;;17.05;5.93;;;;;;;26.47;33.53;102444.22;5040318;28;20032;-82
2023/05/27 10:36:25;;;;;;;15.90;6.28;;;;;;;26.85;34.34;102455.09;5043289;28;20044;-83
2023/05/27 10:39:05;;;;;;;15.27;6.05;;;;;;;26.75;32.37;102447.19;5053800;28;20595;-83
2023/05/27 10:41:43;;;;;;;19.10;7.00;;;;;;;26.75;32.27;102456.22;5041850;28;20482;-83
2023/05/27 10:44:09;;;;;;;16.55;6.18;;;;;;;26.80;30.81;102427.56;5014343;28;20030;-83
2023/05/27 10:46:42;;;;;;;19.48;6.60;;;;;;;27.01;32.13;102437.69;5031289;28;20022;-83
2023/05/27 10:49:16;;;;;;;15.40;6.13;;;;;;;27.10;32.16;102436.59;5033791;28;20033;-83
2023/05/27 10:51:48;;;;;;;18.45;5.82;;;;;;;27.24;30.60;102424.78;5034216;28;20463;-83
2023/05/27 10:54:15;;;;;;;19.63;6.97;;;;;;;27.24;29.96;102426.69;5034645;28;20483;-83
2023/05/27 10:56:51;;;;;;;16.50;6.00;;;;;;;27.40;29.84;102422.94;5034182;28;20026;-83
2023/05/27 10:59:22;;;;;;;15.48;5.68;;;;;;;27.23;29.24;102417.66;5037979;28;20068;-83
2023/05/27 11:01:53;;;;;;;17.23;5.55;;;;;;;27.48;29.44;102423.66;5041364;28;20036;-83
2023/05/27 11:04:18;;;;;;;16.25;5.97;;;;;;;27.47;29.55;102415.66;5028086;28;20026;-84
2023/05/27 11:06:57;;;;;;;18.48;6.00;;;;;;;27.79;29.20;102410.75;5056501;28;20387;-84
2023/05/27 11:09:26;;;;;;;15.60;6.03;;;;;;;27.59;29.44;102403.19;5059244;28;20099;-84
2023/05/27 11:11:51;;;;;;;20.85;6.22;;;;;;;27.97;30.03;102405.72;5043175;28;20065;-84
2023/05/27 11:14:19;;;;;;;16.20;6.38;;;;;;;28.02;29.75;102391.47;5044047;28;20029;-83
2023/05/27 11:16:51;;;;;;;17.70;6.53;;;;;;;28.27;29.29;102391.91;5042153;28;20017;-84
2023/05/27 11:19:16;;;;;;;20.55;6.38;;;;;;;28.32;29.30;102383.13;5042950;28;20111;-82
2023/05/27 11:21:45;;;;;;;15.98;6.20;;;;;;;28.06;27.47;102392.75;5034404;28;20447;-83
2023/05/27 11:24:15;;;;;;;14.45;6.00;;;;;;;28.03;28.93;102385.81;5042573;28;20414;-82
2023/05/27 11:26:43;;;;;;;20.73;6.47;;;;;;;28.07;27.77;102382.72;5042408;28;20029;-83